Time;durP1;ratioP1;P1;durP2;ratioP2;P2;SDS_P1;SDS_P2;PMS_P1;PMS_P2;Temp;Humidity;BMP_temperature;BMP_pressure;BME280_temperature;BME280_humidity;BME280_pressure;Samples;Min_cycle;Max_cycle;Signal;HPM_P1;HPM_P2
2021/06/23 00:00:25;;;;;;;31.05;16.42;;;;;;;12.30;100.00;101924.69;5094332;28;20024;-62
2021/06/23 00:02:51;;;;;;;28.92;15.93;;;;;;;12.21;100.00;101914.84;5094566;28;20493;-62
2021/06/23 00:05:17;;;;;;;28.55;15.82;;;;;;;12.27;100.00;101931.72;5094306;28;20087;-63
2021/06/23 00:07:43;;;;;;;30.33;16.33;;;;;;;12.18;100.00;101928.06;5094171;28;20024;-63
2021/06/23 00:10:09;;;;;;;29.92;16.35;;;;;;;12.19;100.00;101932.50;5094367;28;20032;-62
2021/06/23 00:12:34;;;;;;;28.15;16.15;;;;;;;12.18;100.00;101930.69;5093927;28;20363;-62
2021/06/23 00:15:00;;;;;;;29.80;16.02;;;;;;;12.15;100.00;101935.09;5093039;28;20027;-63
2021/06/23 00:17:29;;;;;;;32.05;16.73;;;;;;;12.13;100.00;101935.06;5093925;28;20039;-62
2021/06/23 00:19:55;;;;;;;31.38;16.42;;;;;;;12.21;100.00;101928.09;5093889;28;20028;-63
2021/06/23 00:22:20;;;;;;;30.88;16.75;;;;;;;12.21;100.00;101922.78;5093854;28;20020;-63
2021/06/23 00:24:45;;;;;;;31.58;17.50;;;;;;;12.17;100.00;101923.63;5094008;28;20031;-63
2021/06/23 00:27:11;;;;;;;27.58;17.10;;;;;;;12.19;100.00;101919.25;5093765;28;20356;-62
2021/06/23 00:29:36;;;;;;;31.48;17.13;;;;;;;12.20;100.00;101914.81;5093528;28;20032;-63
2021/06/23 00:32:03;;;;;;;32.70;17.42;;;;;;;12.09;99.81;101917.31;5093643;28;20375;-63
2021/06/23 00:34:30;;;;;;;33.30;16.73;;;;;;;12.06;100.00;101914.63;5093809;28;20032;-62
2021/06/23 00:36:56;;;;;;;31.50;17.58;;;;;;;12.07;100.00;101912.84;5093547;28;20020;-63
2021/06/23 00:39:22;;;;;;;29.58;16.88;;;;;;;12.06;100.00;101917.28;5093590;28;20157;-62
2021/06/23 00:41:47;;;;;;;29.95;17.40;;;;;;;12.03;99.26;101915.47;5093684;28;20027;-62
2021/06/23 00:44:13;;;;;;;29.60;17.63;;;;;;;12.03;99.93;101915.47;5093303;28;20063;-62
2021/06/23 00:46:41;;;;;;;32.05;17.48;;;;;;;12.00;100.00;101919.84;5093439;28;20104;-63
2021/06/23 00:49:09;;;;;;;30.75;18.15;;;;;;;11.98;100.00;101922.44;5093265;28;20489;-62
2021/06/23 00:51:35;;;;;;;31.98;18.25;;;;;;;11.88;100.00;101922.25;5093506;28;20031;-65
2021/06/23 00:54:00;;;;;;;30.73;18.10;;;;;;;11.99;97.38;101923.34;5093478;28;20024;-66
2021/06/23 00:56:32;;;;;;;32.60;17.90;;;;;;;11.94;100.00;101928.59;5093321;28;20028;-66
2021/06/23 00:58:58;;;;;;;35.13;19.17;;;;;;;11.99;99.54;101924.22;5093167;28;20363;-65
2021/06/23 01:01:24;;;;;;;34.20;19.45;;;;;;;11.95;100.00;101921.50;5093263;28;20026;-66
2021/06/23 01:03:49;;;;;;;32.83;19.33;;;;;;;11.97;100.00;101922.41;5093310;28;20020;-65
2021/06/23 01:06:15;;;;;;;31.85;18.88;;;;;;;11.92;96.57;101922.31;5093365;28;20024;-66
2021/06/23 01:08:41;;;;;;;31.95;18.70;;;;;;;11.95;98.27;101934.75;5093249;28;20485;-66
2021/06/23 01:11:07;;;;;;;35.60;19.42;;;;;;;11.89;99.78;101929.34;5092957;28;20038;-65
2021/06/23 01:13:59;;;;;;;33.55;19.25;;;;;;;11.90;99.63;101932.00;5093193;28;20024;-66
2021/06/23 01:16:26;;;;;;;32.00;18.45;;;;;;;11.89;98.12;101929.34;5090873;28;20032;-65
2021/06/23 01:18:52;;;;;;;34.20;20.23;;;;;;;11.89;100.00;101932.88;5093245;28;20082;-65
2021/06/23 01:21:18;;;;;;;32.33;19.63;;;;;;;11.86;100.00;101931.06;5092722;28;20370;-64
2021/06/23 01:23:44;;;;;;;33.80;20.00;;;;;;;11.92;100.00;101922.31;5092850;28;20035;-65
2021/06/23 01:26:09;;;;;;;34.58;19.58;;;;;;;11.97;100.00;101931.28;5092971;28;20136;-66
2021/06/23 01:28:34;;;;;;;32.40;18.95;;;;;;;11.90;99.39;101917.84;5092675;28;20023;-65
2021/06/23 01:31:00;;;;;;;33.13;19.98;;;;;;;11.91;100.00;101928.50;5092630;28;20077;-64
2021/06/23 01:33:26;;;;;;;33.67;20.08;;;;;;;11.88;100.00;101940.78;5093064;28;20035;-64
2021/06/23 01:35:53;;;;;;;34.95;19.90;;;;;;;11.92;99.73;101939.97;5092702;28;20103;-64
2021/06/23 01:38:19;;;;;;;33.25;19.88;;;;;;;11.85;100.00;101939.88;5092640;28;20523;-64
2021/06/23 01:40:45;;;;;;;34.13;20.38;;;;;;;11.83;100.00;101938.06;5092939;28;20024;-63
2021/06/23 01:43:11;;;;;;;31.75;19.33;;;;;;;11.86;98.30;101939.00;5092744;28;20051;-64
2021/06/23 01:45:38;;;;;;;31.80;19.98;;;;;;;11.89;99.19;101939.94;5092523;28;20524;-63
2021/06/23 01:48:04;;;;;;;33.20;20.45;;;;;;;11.93;100.00;101944.44;5092765;28;20031;-64
2021/06/23 01:50:29;;;;;;;34.55;19.38;;;;;;;11.90;98.80;101941.69;5092699;28;20024;-64
2021/06/23 01:52:55;;;;;;;34.65;20.23;;;;;;;11.81;100.00;101953.94;5092534;28;20481;-63
2021/06/23 01:55:29;;;;;;;32.15;19.05;;;;;;;11.84;100.00;101948.69;5092697;28;20020;-64
2021/06/23 01:57:57;;;;;;;34.72;20.08;;;;;;;11.86;98.51;101962.84;5092682;28;20055;-63
2021/06/23 02:00:30;;;;;;;33.17;18.45;;;;;;;11.84;97.48;101961.06;5099189;28;20081;-64
2021/06/23 02:03:01;;;;;;;33.08;18.98;;;;;;;11.77;98.34;101960.06;5092889;28;20028;-64
2021/06/23 02:05:42;;;;;;;34.63;19.65;;;;;;;11.78;100.00;101966.22;5092607;28;20031;-63
2021/06/23 02:08:28;;;;;;;31.48;18.70;;;;;;;11.80;99.51;101962.75;5092580;28;20076;-62
2021/06/23 02:11:07;;;;;;;32.40;19.20;;;;;;;11.77;99.92;101965.34;5090510;28;20039;-63
2021/06/23 02:14:03;;;;;;;33.22;18.88;;;;;;;11.77;98.79;101970.66;5092470;28;20046;-63
2021/06/23 02:16:30;;;;;;;32.90;18.50;;;;;;;11.77;99.20;101970.66;5089815;28;20093;-64
2021/06/23 02:19:02;;;;;;;34.95;19.27;;;;;;;11.75;100.00;101977.69;5091001;28;20044;-62
2021/06/23 02:21:30;;;;;;;33.75;18.85;;;;;;;11.74;98.69;101983.84;5092458;28;20566;-62
2021/06/23 02:23:57;;;;;;;32.90;18.38;;;;;;;11.74;98.67;101982.97;5092729;28;20020;-62
2021/06/23 02:26:22;;;;;;;34.03;18.45;;;;;;;11.73;100.00;101982.06;5092270;28;20027;-62
2021/06/23 02:28:48;;;;;;;29.85;18.58;;;;;;;11.74;100.00;101983.84;5092436;28;20374;-63
2021/06/23 02:31:14;;;;;;;32.75;18.27;;;;;;;11.77;99.24;101990.97;5092362;28;20471;-63
2021/06/23 02:33:41;;;;;;;31.52;18.30;;;;;;;11.75;97.31;101990.03;5088070;28;20474;-63
2021/06/23 02:36:07;;;;;;;31.23;18.75;;;;;;;11.78;100.00;101988.34;5092387;28;20111;-63
2021/06/23 02:38:32;;;;;;;31.48;18.65;;;;;;;11.77;99.42;101989.19;5094502;28;20116;-63
2021/06/23 02:40:58;;;;;;;31.70;18.30;;;;;;;11.76;100.00;101981.22;5095771;28;20462;-64
2021/06/23 02:43:24;;;;;;;32.75;18.73;;;;;;;11.73;99.12;101991.78;5095711;28;20435;-63
2021/06/23 02:45:49;;;;;;;31.98;18.63;;;;;;;11.73;100.00;101994.41;5095903;28;20482;-63
2021/06/23 02:48:15;;;;;;;30.23;17.92;;;;;;;11.73;99.03;101986.47;5095599;28;20386;-63
2021/06/23 02:50:56;;;;;;;32.50;18.52;;;;;;;11.69;99.96;101994.38;5093762;28;20039;-63
2021/06/23 02:53:22;;;;;;;35.72;18.85;;;;;;;11.67;100.00;101980.19;5093383;28;20058;-65
2021/06/23 02:55:47;;;;;;;34.40;18.02;;;;;;;11.70;100.00;101982.00;5095997;28;20051;-66
2021/06/23 02:58:13;;;;;;;29.55;17.67;;;;;;;11.68;100.00;101983.75;5095489;28;20020;-66
2021/06/23 03:00:41;;;;;;;32.17;18.50;;;;;;;11.69;100.00;101985.50;5095642;28;20035;-66
2021/06/23 03:03:06;;;;;;;31.02;17.90;;;;;;;11.66;100.00;101983.72;5095608;28;20073;-66
2021/06/23 03:05:31;;;;;;;33.42;19.40;;;;;;;11.70;100.00;101976.69;5095213;28;20123;-65
2021/06/23 03:07:57;;;;;;;33.95;18.17;;;;;;;11.73;100.00;101989.13;5095468;28;20039;-65
2021/06/23 03:10:22;;;;;;;30.95;18.48;;;;;;;11.75;100.00;101980.34;5095057;28;20035;-65
2021/06/23 03:12:47;;;;;;;32.92;18.15;;;;;;;11.71;100.00;101989.09;5095172;28;20031;-66
2021/06/23 03:15:13;;;;;;;31.92;17.80;;;;;;;11.72;100.00;101990.84;5095365;28;20093;-66
2021/06/23 03:17:38;;;;;;;31.05;17.63;;;;;;;11.64;99.95;101992.50;5095131;28;20031;-66
2021/06/23 03:20:08;;;;;;;32.13;17.60;;;;;;;11.73;99.85;101994.41;5094942;28;20565;-66
2021/06/23 03:22:33;;;;;;;31.10;17.02;;;;;;;11.74;98.88;101994.44;5095393;28;20020;-65
2021/06/23 03:24:59;;;;;;;31.63;18.05;;;;;;;11.73;99.23;101997.94;5095171;28;20028;-66
2021/06/23 03:27:24;;;;;;;32.88;17.35;;;;;;;11.80;100.00;101997.19;5094800;28;20374;-65
2021/06/23 03:29:49;;;;;;;31.95;17.23;;;;;;;11.72;98.04;101993.50;5094933;28;20103;-65
2021/06/23 03:32:15;;;;;;;29.88;17.42;;;;;;;11.72;98.27;101996.16;5094705;28;20027;-63
2021/06/23 03:34:40;;;;;;;32.45;17.58;;;;;;;11.73;99.51;101997.94;5094617;28;20035;-63
2021/06/23 03:37:06;;;;;;;32.08;17.55;;;;;;;11.68;99.44;102002.28;5094843;28;20035;-63
2021/06/23 03:39:32;;;;;;;31.70;17.52;;;;;;;11.60;98.78;101991.53;5094881;28;20019;-63
2021/06/23 03:41:58;;;;;;;31.55;16.90;;;;;;;11.69;97.69;102004.03;5094531;28;20036;-62
2021/06/23 03:44:23;;;;;;;32.38;17.48;;;;;;;11.63;98.14;101996.88;5094492;28;20100;-63
2021/06/23 03:46:49;;;;;;;32.85;16.73;;;;;;;11.69;98.90;102004.03;5094311;28;20043;-62
2021/06/23 03:49:14;;;;;;;32.22;16.90;;;;;;;11.68;99.64;101995.22;5094621;28;20035;-62
2021/06/23 03:51:40;;;;;;;32.15;17.33;;;;;;;11.69;97.81;102002.31;5094138;28;20024;-63
2021/06/23 03:54:05;;;;;;;30.52;17.02;;;;;;;11.66;98.57;101994.31;5094489;28;20035;-63
2021/06/23 03:56:31;;;;;;;32.00;17.45;;;;;;;11.69;98.60;102001.41;5094811;28;20020;-62
2021/06/23 03:58:56;;;;;;;32.47;17.02;;;;;;;11.63;98.75;101996.88;5094322;28;20026;-63
2021/06/23 04:01:22;;;;;;;32.72;16.80;;;;;;;11.70;98.77;102003.19;5094201;28;20028;-63
2021/06/23 04:03:47;;;;;;;30.90;16.92;;;;;;;11.70;97.28;102000.53;5094346;28;20036;-63
2021/06/23 04:06:13;;;;;;;32.40;16.95;;;;;;;11.69;98.83;101998.75;5094089;28;20025;-62
2021/06/23 04:08:38;;;;;;;32.63;17.25;;;;;;;11.70;97.89;102003.19;5094209;28;20036;-62
2021/06/23 04:11:03;;;;;;;30.63;17.15;;;;;;;11.75;98.05;102004.19;5094092;28;20039;-63
2021/06/23 04:13:29;;;;;;;31.95;17.70;;;;;;;11.78;97.97;101990.06;5093849;28;20020;-65
2021/06/23 04:15:54;;;;;;;31.58;17.40;;;;;;;11.74;97.93;101994.44;5094021;28;20031;-64
2021/06/23 04:18:19;;;;;;;30.77;17.35;;;;;;;11.84;98.00;101988.44;5093926;28;20020;-63
2021/06/23 04:20:45;;;;;;;30.77;17.33;;;;;;;11.78;96.73;101985.69;5093857;28;20453;-65
2021/06/23 04:23:10;;;;;;;31.77;16.67;;;;;;;11.81;95.97;101987.47;5093748;28;20019;-64
2021/06/23 04:25:35;;;;;;;31.42;17.13;;;;;;;11.85;96.05;101986.66;5093802;28;20028;-65
2021/06/23 04:28:01;;;;;;;32.00;16.73;;;;;;;11.91;95.10;101989.44;5093620;28;20023;-62
2021/06/23 04:30:26;;;;;;;31.80;16.80;;;;;;;11.92;95.27;101992.97;5093984;28;20052;-65
2021/06/23 04:32:51;;;;;;;33.60;17.25;;;;;;;11.98;95.67;102003.72;5093674;28;20497;-62
2021/06/23 04:35:16;;;;;;;31.63;16.85;;;;;;;11.99;95.04;101994.91;5093759;28;20085;-63
2021/06/23 04:37:44;;;;;;;30.08;16.90;;;;;;;12.00;94.30;101999.34;5093571;28;20099;-64
2021/06/23 04:40:13;;;;;;;29.88;16.92;;;;;;;12.00;93.43;101992.28;5093381;28;20031;-62
2021/06/23 04:42:40;;;;;;;30.48;16.95;;;;;;;12.05;93.77;101999.41;5093297;28;20020;-64
2021/06/23 04:45:09;;;;;;;31.30;17.02;;;;;;;12.08;92.55;102000.34;5092026;28;20048;-63
2021/06/23 04:47:35;;;;;;;31.15;16.58;;;;;;;12.07;92.14;101990.59;5093180;28;20036;-64
2021/06/23 04:50:00;;;;;;;30.00;16.90;;;;;;;12.09;93.10;101999.47;5093359;28;20036;-66
2021/06/23 04:52:26;;;;;;;30.92;17.17;;;;;;;12.06;91.64;101999.44;5093332;28;20024;-62
2021/06/23 04:54:52;;;;;;;29.65;16.58;;;;;;;12.04;92.61;101998.50;5092989;28;20020;-63
2021/06/23 04:57:18;;;;;;;30.45;15.80;;;;;;;12.12;92.06;102002.19;5093100;28;20127;-64
2021/06/23 04:59:44;;;;;;;32.15;16.80;;;;;;;12.21;91.77;101990.84;5091812;28;20035;-63
2021/06/23 05:02:09;;;;;;;30.85;16.45;;;;;;;12.23;91.47;101993.50;5092518;28;20036;-65
2021/06/23 05:04:35;;;;;;;31.50;16.40;;;;;;;12.23;89.96;101990.84;5092959;28;20023;-66
2021/06/23 05:07:07;;;;;;;29.33;16.35;;;;;;;12.23;90.62;101990.84;5093364;28;20050;-62
2021/06/23 05:09:32;;;;;;;31.38;15.75;;;;;;;12.25;90.26;101997.09;5092798;28;20483;-61
2021/06/23 05:11:58;;;;;;;31.63;17.38;;;;;;;12.30;91.24;102004.22;5092796;28;20064;-62
2021/06/23 05:14:23;;;;;;;31.33;17.45;;;;;;;12.34;90.82;101997.22;5093305;28;20432;-62
2021/06/23 05:16:50;;;;;;;30.88;16.35;;;;;;;12.40;89.99;102002.63;5092734;28;20035;-62
2021/06/23 05:19:17;;;;;;;31.42;16.95;;;;;;;12.42;88.60;102006.19;5092789;28;20024;-62
2021/06/23 05:21:42;;;;;;;31.48;17.25;;;;;;;12.53;89.38;102009.88;5089134;28;20107;-62
2021/06/23 05:24:08;;;;;;;31.85;16.77;;;;;;;12.63;88.36;102007.38;5089259;28;20126;-62
2021/06/23 05:26:34;;;;;;;30.95;16.20;;;;;;;12.66;87.44;102010.06;5091159;28;20039;-61
2021/06/23 05:28:59;;;;;;;29.48;15.57;;;;;;;12.72;86.10;102003.06;5091659;28;20509;-60
2021/06/23 05:31:25;;;;;;;30.02;15.82;;;;;;;12.68;84.99;102003.94;5091023;28;20067;-61
2021/06/23 05:33:51;;;;;;;31.00;16.80;;;;;;;12.69;86.15;102013.66;5091223;28;20122;-62
2021/06/23 05:36:16;;;;;;;35.72;16.40;;;;;;;12.71;85.42;102006.63;5091226;28;20028;-61
2021/06/23 05:38:42;;;;;;;36.03;17.08;;;;;;;12.78;85.14;102004.03;5091150;28;20042;-60
2021/06/23 05:41:07;;;;;;;32.50;16.00;;;;;;;12.76;84.64;102011.97;5090478;28;20382;-60
2021/06/23 05:43:33;;;;;;;30.20;16.20;;;;;;;12.79;84.80;102012.03;5090876;28;20032;-60
2021/06/23 05:45:58;;;;;;;29.70;16.33;;;;;;;12.81;86.55;102009.38;5090861;28;20032;-60
2021/06/23 05:48:23;;;;;;;29.48;15.68;;;;;;;12.84;84.01;102018.28;5090961;28;20048;-61
2021/06/23 05:50:49;;;;;;;32.65;16.50;;;;;;;12.89;83.16;102008.63;5090986;28;20467;-61
2021/06/23 05:53:15;;;;;;;29.63;15.63;;;;;;;12.96;84.18;102019.31;5090755;28;20524;-61
2021/06/23 05:55:40;;;;;;;32.88;15.27;;;;;;;13.01;84.35;102013.19;5090481;28;20024;-61
2021/06/23 05:58:06;;;;;;;30.42;15.07;;;;;;;13.11;82.83;102013.31;5090930;28;20541;-60
2021/06/23 06:00:32;;;;;;;29.58;15.20;;;;;;;13.17;82.34;102005.44;5091112;28;20027;-62
2021/06/23 06:02:57;;;;;;;29.48;15.00;;;;;;;13.17;80.31;102018.69;5091118;28;20382;-61
2021/06/23 06:05:22;;;;;;;29.15;15.43;;;;;;;13.21;80.58;102015.22;5091306;28;20020;-61
2021/06/23 06:07:49;;;;;;;26.30;14.25;;;;;;;13.24;79.83;102026.75;5089867;28;20058;-61
2021/06/23 06:10:15;;;;;;;28.25;14.05;;;;;;;13.29;77.86;102017.97;5090908;28;20035;-61
2021/06/23 06:12:40;;;;;;;30.00;14.55;;;;;;;13.31;79.24;102021.50;5091802;28;20028;-61
2021/06/23 06:15:06;;;;;;;29.65;15.32;;;;;;;13.38;79.49;102026.06;5094962;28;20486;-61
2021/06/23 06:17:32;;;;;;;29.95;15.07;;;;;;;13.50;79.62;102028.88;5094190;28;20028;-61
2021/06/23 06:19:57;;;;;;;29.48;15.10;;;;;;;13.73;78.97;102033.50;5094359;28;20035;-61
2021/06/23 06:22:24;;;;;;;29.42;14.25;;;;;;;13.87;77.63;102029.22;5094979;28;20031;-61
2021/06/23 06:24:49;;;;;;;29.98;14.05;;;;;;;13.94;75.25;102035.50;5094871;28;20028;-63
2021/06/23 06:27:15;;;;;;;28.98;13.77;;;;;;;13.99;75.67;102039.06;5094443;28;20462;-62
2021/06/23 06:29:40;;;;;;;27.88;13.50;;;;;;;14.04;74.50;102039.16;5094766;28;20020;-62
2021/06/23 06:32:06;;;;;;;26.35;13.57;;;;;;;14.14;74.38;102048.97;5094429;28;20035;-63
2021/06/23 06:34:31;;;;;;;28.67;12.90;;;;;;;14.20;73.05;102046.38;5094315;28;20120;-63
2021/06/23 06:36:57;;;;;;;28.83;14.05;;;;;;;14.26;74.12;102053.50;5093936;28;20028;-63
2021/06/23 06:39:22;;;;;;;27.98;12.77;;;;;;;14.26;72.39;102049.06;5094301;28;20024;-63
2021/06/23 06:41:47;;;;;;;27.38;12.43;;;;;;;14.40;71.18;102042.97;5093444;28;20486;-63
2021/06/23 06:44:13;;;;;;;30.23;13.50;;;;;;;14.27;73.31;102050.88;5094182;28;20036;-62
2021/06/23 06:46:38;;;;;;;26.80;13.52;;;;;;;14.30;73.63;102056.19;5094383;28;20473;-62
2021/06/23 06:49:04;;;;;;;29.33;13.95;;;;;;;14.42;72.85;102049.19;5094252;28;20024;-61
2021/06/23 06:51:30;;;;;;;27.50;13.52;;;;;;;14.38;71.95;102058.03;5094091;28;20032;-61
2021/06/23 06:53:56;;;;;;;28.42;13.80;;;;;;;14.36;71.92;102052.69;5092129;28;20482;-64
2021/06/23 06:56:21;;;;;;;26.67;13.65;;;;;;;14.43;74.43;102056.28;5093684;28;20024;-62
2021/06/23 06:58:47;;;;;;;25.48;12.95;;;;;;;14.43;72.12;102064.25;5094037;28;20059;-63
2021/06/23 07:01:12;;;;;;;26.92;12.80;;;;;;;14.39;70.52;102065.16;5093899;28;20024;-62
2021/06/23 07:03:37;;;;;;;26.85;12.82;;;;;;;14.48;71.44;102055.44;5093575;28;20036;-61
2021/06/23 07:06:03;;;;;;;25.98;12.93;;;;;;;14.50;70.63;102063.44;5092836;28;20107;-61
2021/06/23 07:08:28;;;;;;;28.42;13.90;;;;;;;14.63;71.68;102065.34;5093093;28;20051;-63
2021/06/23 07:10:54;;;;;;;27.55;13.48;;;;;;;14.68;70.58;102062.72;5093870;28;20093;-62
2021/06/23 07:13:19;;;;;;;27.63;13.05;;;;;;;14.78;69.13;102066.31;5093582;28;20036;-64
2021/06/23 07:15:44;;;;;;;28.10;13.48;;;;;;;14.84;72.05;102063.72;5087507;28;20028;-64
2021/06/23 07:18:09;;;;;;;26.75;11.95;;;;;;;14.87;70.93;102069.06;5093119;28;20067;-64
2021/06/23 07:20:35;;;;;;;27.67;11.30;;;;;;;14.94;69.01;102067.28;5092791;28;20056;-64
2021/06/23 07:23:00;;;;;;;24.40;10.82;;;;;;;15.02;67.83;102056.72;5093634;28;20035;-64
2021/06/23 07:25:26;;;;;;;25.58;10.80;;;;;;;14.95;67.38;102051.31;5093306;28;20105;-64
2021/06/23 07:27:51;;;;;;;25.70;10.57;;;;;;;15.15;67.40;102059.41;5092947;28;20459;-64
2021/06/23 07:30:18;;;;;;;26.23;9.95;;;;;;;15.42;65.14;102063.09;5093179;28;20031;-64
2021/06/23 07:37:57;;;;;;;25.45;9.63;;;;;;;15.71;64.32;102058.72;5091050;28;20039;-64
2021/06/23 07:40:40;;;;;;;25.48;9.55;;;;;;;15.81;64.31;102065.88;5094349;28;20099;-64
2021/06/23 07:43:05;;;;;;;;;;;;;;;16.12;64.09;102065.91;5094489;28;20024;-64
2021/06/23 07:45:30;;;;;;;25.25;8.68;;;;;;;15.73;62.57;102063.19;5094102;28;19919;-64
2021/06/23 07:47:56;;;;;;;23.08;8.50;;;;;;;15.68;62.86;102057.84;5093891;28;20020;-64
2021/06/23 07:50:21;;;;;;;24.27;8.65;;;;;;;15.63;63.29;102056.94;5094376;28;20032;-64
2021/06/23 07:52:51;;;;;;;25.88;8.82;;;;;;;15.69;62.34;102056.06;5094057;28;20435;-64
2021/06/23 08:11:39;;;;;;;26.63;9.35;;;;;;;16.72;61.22;102061.44;5012099;28;20038;-64
2021/06/23 08:14:05;;;;;;;25.02;9.13;;;;;;;16.96;61.11;102059.63;5011848;28;20117;-64
2021/06/23 08:16:32;;;;;;;24.70;9.25;;;;;;;17.04;58.37;102057.84;5011769;28;20124;-64
2021/06/23 08:18:57;;;;;;;24.95;9.23;;;;;;;17.23;59.33;102063.13;5011772;28;20034;-64
2021/06/23 08:21:23;;;;;;;23.60;8.50;;;;;;;17.46;58.83;102064.78;5011751;28;20105;-66
2021/06/23 08:23:48;;;;;;;27.23;8.98;;;;;;;17.50;58.10;102063.88;5011695;28;20034;-66
2021/06/23 08:26:13;;;;;;;22.98;9.05;;;;;;;17.50;57.11;102062.06;5011762;28;20034;-66
2021/06/23 08:28:39;;;;;;;22.92;8.60;;;;;;;17.52;58.19;102056.75;5011422;28;20037;-66
2021/06/23 08:31:04;;;;;;;24.50;9.18;;;;;;;17.57;56.48;102055.81;5011474;28;20052;-66
2021/06/23 08:33:30;;;;;;;23.23;9.40;;;;;;;17.53;57.02;102058.50;5011647;28;20041;-65
2021/06/23 08:35:55;;;;;;;23.40;9.32;;;;;;;17.74;58.32;102063.72;5010515;28;20038;-64
2021/06/23 08:38:22;;;;;;;24.08;9.38;;;;;;;17.82;58.38;102058.31;5009337;28;20030;-65
2021/06/23 08:40:48;;;;;;;23.65;9.43;;;;;;;17.91;56.87;102062.75;5010008;28;20041;-65
2021/06/23 08:43:19;;;;;;;23.60;9.70;;;;;;;17.94;57.86;102060.09;5055384;28;20442;-65
2021/06/23 08:45:45;;;;;;;24.60;10.02;;;;;;;17.86;56.66;102061.88;5087288;28;20026;-66
2021/06/23 08:48:11;;;;;;;22.95;9.32;;;;;;;17.95;56.83;102061.84;5090734;28;20016;-65
2021/06/23 08:50:37;;;;;;;24.20;9.68;;;;;;;18.19;56.47;102062.56;5090224;28;20381;-66
2021/06/23 08:53:03;;;;;;;23.48;9.18;;;;;;;18.06;55.38;102075.16;5086117;28;20103;-66
2021/06/23 08:55:28;;;;;;;24.77;9.07;;;;;;;17.87;55.49;102072.56;5090677;28;20549;-63
2021/06/23 08:57:53;;;;;;;25.10;8.98;;;;;;;17.89;54.49;102072.56;5090373;28;20100;-63
2021/06/23 09:00:21;;;;;;;24.13;9.30;;;;;;;17.68;55.95;102074.47;5088345;28;20549;-68
2021/06/23 09:02:47;;;;;;;22.30;8.75;;;;;;;17.73;55.21;102071.78;5089269;28;20025;-66
2021/06/23 09:05:15;;;;;;;22.83;9.35;;;;;;;17.72;55.17;102073.56;5091450;28;20036;-66
2021/06/23 09:07:48;;;;;;;22.70;9.20;;;;;;;17.71;56.93;102066.44;5091928;28;20020;-68
2021/06/23 09:10:28;;;;;;;25.23;9.52;;;;;;;17.81;56.40;102077.06;5091448;28;20024;-65
2021/06/23 09:13:00;;;;;;;25.13;10.10;;;;;;;17.90;57.06;102069.91;5089680;28;20043;-65
2021/06/23 09:15:48;;;;;;;24.95;9.90;;;;;;;18.24;56.85;102076.78;5090613;28;20445;-65
2021/06/23 09:18:18;;;;;;;24.15;9.32;;;;;;;18.35;53.61;102072.25;5091449;28;20470;-65
2021/06/23 09:20:44;;;;;;;24.48;9.90;;;;;;;18.35;53.96;102072.25;5091438;28;20382;-66
2021/06/23 09:23:10;;;;;;;23.85;9.77;;;;;;;18.37;53.75;102074.91;5090772;28;20027;-65
2021/06/23 09:25:37;;;;;;;22.35;9.55;;;;;;;18.39;54.42;102083.81;5091425;28;20032;-65
2021/06/23 09:28:13;;;;;;;22.02;9.20;;;;;;;18.60;54.32;102072.03;5090338;28;20054;-65
2021/06/23 09:30:41;;;;;;;24.10;9.43;;;;;;;18.90;52.52;102070.84;5090786;28;20036;-65
2021/06/23 09:33:21;;;;;;;23.55;9.18;;;;;;;19.07;52.28;102065.28;5091064;28;20043;-66
2021/06/23 09:35:55;;;;;;;23.25;9.60;;;;;;;19.37;50.00;102073.88;5090175;28;20024;-62
2021/06/23 09:38:39;;;;;;;24.00;8.93;;;;;;;19.65;51.77;102073.50;5090530;28;20035;-62
2021/06/23 09:41:19;;;;;;;25.35;9.25;;;;;;;20.13;50.17;102079.03;5087681;28;20020;-62
2021/06/23 09:43:48;;;;;;;24.90;8.98;;;;;;;20.13;47.06;102078.19;5088298;28;20082;-62
2021/06/23 09:46:22;;;;;;;22.45;8.32;;;;;;;20.07;47.74;102084.53;5091248;28;20028;-63
2021/06/23 09:48:49;;;;;;;23.95;8.43;;;;;;;19.97;48.51;102073.03;5095113;28;20367;-63
2021/06/23 09:51:18;;;;;;;21.92;8.55;;;;;;;20.05;48.42;102074.72;5095528;28;20058;-63
2021/06/23 09:53:44;;;;;;;23.48;8.90;;;;;;;20.13;47.93;102079.03;5094566;28;20020;-63
2021/06/23 09:56:46;;;;;;;23.70;8.70;;;;;;;20.52;48.91;102087.34;5094779;28;20149;-63
2021/06/23 09:59:33;;;;;;;22.98;8.00;;;;;;;20.83;48.40;102080.56;5043578;28;20065;-64
2021/06/23 10:01:59;;;;;;;22.02;8.40;;;;;;;20.95;44.94;102074.94;5041756;28;20073;-64
2021/06/23 10:04:36;;;;;;;23.10;8.70;;;;;;;21.17;47.41;102079.88;5042672;28;20500;-63
2021/06/23 10:07:03;;;;;;;24.13;8.55;;;;;;;21.19;46.17;102080.75;5039367;28;20029;-62
2021/06/23 10:09:30;;;;;;;23.15;7.78;;;;;;;21.12;44.50;102077.28;5041884;28;20145;-61
2021/06/23 10:11:57;;;;;;;22.77;8.13;;;;;;;21.18;45.55;102077.16;5042045;28;20039;-62
2021/06/23 10:14:24;;;;;;;24.52;8.60;;;;;;;21.21;45.65;102077.09;5041930;28;20040;-61
2021/06/23 10:16:52;;;;;;;23.52;8.48;;;;;;;21.36;46.25;102077.69;5043027;28;20044;-63
2021/06/23 10:19:18;;;;;;;23.55;8.30;;;;;;;21.58;43.52;102075.44;5037116;28;20568;-62
2021/06/23 10:21:44;;;;;;;22.83;7.68;;;;;;;21.63;43.71;102073.56;5040315;28;20455;-66
2021/06/23 10:24:11;;;;;;;21.83;7.50;;;;;;;21.83;44.09;102085.66;5037512;28;20036;-63
2021/06/23 10:26:51;;;;;;;21.45;8.32;;;;;;;21.79;44.66;102075.91;5042188;28;20177;-64
2021/06/23 10:29:24;;;;;;;20.92;7.47;;;;;;;21.14;43.40;102080.81;5036787;28;20036;-63
2021/06/23 10:31:50;;;;;;;22.27;7.70;;;;;;;20.82;44.35;102073.41;5039889;28;20586;-63
2021/06/23 10:34:18;;;;;;;27.02;8.20;;;;;;;20.61;45.07;102075.56;5052380;28;20043;-64
2021/06/23 10:36:45;;;;;;;28.67;7.80;;;;;;;20.46;45.97;102076.72;5093614;28;20024;-62
2021/06/23 10:39:11;;;;;;;22.50;7.90;;;;;;;20.37;45.70;102082.22;5094598;28;20074;-66
2021/06/23 10:41:39;;;;;;;21.67;7.20;;;;;;;20.15;46.09;102077.25;5094393;28;20050;-62
2021/06/23 10:44:18;;;;;;;23.88;7.72;;;;;;;20.45;47.45;102080.31;5093325;28;20066;-63
2021/06/23 10:46:47;;;;;;;20.20;7.22;;;;;;;20.17;46.93;102075.41;5093836;28;20453;-63
2021/06/23 10:49:16;;;;;;;21.42;7.28;;;;;;;19.83;46.77;102078.63;5091609;28;20030;-63
2021/06/23 10:51:43;;;;;;;22.48;7.45;;;;;;;19.59;48.19;102097.72;5093953;28;20040;-66
2021/06/23 10:54:27;;;;;;;21.42;7.70;;;;;;;19.51;49.80;102087.06;5093433;28;20032;-65
2021/06/23 10:56:52;;;;;;;22.70;7.70;;;;;;;19.53;49.33;102082.59;5093117;28;20035;-65
2021/06/23 10:59:34;;;;;;;24.05;7.93;;;;;;;19.64;49.92;102091.38;5093260;28;20012;-65
2021/06/23 11:02:07;;;;;;;22.58;8.05;;;;;;;19.62;49.26;102089.63;5093743;28;20522;-66
2021/06/23 11:05:02;;;;;;;22.83;8.10;;;;;;;19.71;49.56;102089.50;5093678;28;20032;-65
2021/06/23 11:07:34;;;;;;;20.95;8.35;;;;;;;19.77;48.46;102094.75;5091762;28;20093;-67
2021/06/23 11:10:31;;;;;;;21.33;8.55;;;;;;;19.91;48.60;102091.03;5093678;28;20043;-66
2021/06/23 11:13:00;;;;;;;21.92;8.15;;;;;;;19.94;47.38;102088.31;5037173;28;20071;-66
2021/06/23 11:15:35;;;;;;;21.60;7.97;;;;;;;20.09;47.11;102088.06;5037079;28;20029;-66
2021/06/23 11:18:25;;;;;;;21.52;7.90;;;;;;;20.12;48.22;102087.13;5038012;28;20075;-66
2021/06/23 11:20:53;;;;;;;24.67;8.68;;;;;;;19.98;47.17;102084.66;5040630;28;20040;-65
2021/06/23 11:23:46;;;;;;;23.15;7.97;;;;;;;20.30;47.82;102093.97;5042866;28;20041;-66
2021/06/23 11:26:21;;;;;;;23.42;8.00;;;;;;;20.72;46.42;102081.66;5042089;28;20037;-66
2021/06/23 11:28:52;;;;;;;22.73;7.38;;;;;;;20.92;45.01;102087.56;5036435;28;20065;-65
2021/06/23 11:31:20;;;;;;;22.92;7.78;;;;;;;20.66;44.77;102079.09;5042831;28;20123;-65
2021/06/23 11:33:55;;;;;;;21.67;7.30;;;;;;;20.60;45.76;102086.31;5041945;28;20132;-69